createdAt,value
2022-10-23T00:02:19.040Z,100499.31
2022-10-23T00:07:20.592Z,100489.72
2022-10-23T00:12:22.019Z,100488.16
2022-10-23T00:17:23.481Z,100481.19
2022-10-23T00:22:24.907Z,100475.09
2022-10-23T00:27:26.612Z,100474.34
2022-10-23T00:32:28.259Z,100470.63
2022-10-23T00:37:29.700Z,100461.81
2022-10-23T00:42:31.153Z,100452.69
2022-10-23T00:47:32.840Z,100450.69
2022-10-23T00:52:37.356Z,100436.50
2022-10-23T00:57:43.660Z,100431.22
2022-10-23T01:02:45.627Z,100443.56
2022-10-23T01:08:27.740Z,100450.16
2022-10-23T01:13:43.952Z,100444.72
2022-10-23T01:19:02.828Z,100437.06
2022-10-23T01:24:35.221Z,100452.53
2022-10-23T01:29:59.081Z,100443.38
2022-10-23T01:35:11.628Z,100432.09
2022-10-23T01:40:29.269Z,100432.09
2022-10-23T01:45:44.059Z,100421.22
2022-10-23T01:50:46.957Z,100415.41
2022-10-23T01:55:49.918Z,100408.41
2022-10-23T02:00:53.033Z,100398.06
2022-10-23T02:05:54.552Z,100406.19
2022-10-23T02:11:07.880Z,100407.00
2022-10-23T02:16:23.303Z,100396.88
2022-10-23T02:21:50.402Z,100381.25
2022-10-23T02:26:55.449Z,100377.06
2022-10-23T02:31:56.995Z,100371.50
2022-10-23T02:36:58.548Z,100379.56
2022-10-23T02:42:11.097Z,100382.38
2022-10-23T02:47:38.183Z,100363.56
2022-10-23T02:52:59.347Z,100379.44
2022-10-23T02:58:27.269Z,100381.81
2022-10-23T03:03:35.230Z,100363.16
2022-10-23T03:08:53.682Z,100342.66
2022-10-23T03:13:55.150Z,100337.38
2022-10-23T03:18:56.602Z,100329.72
2022-10-23T03:23:58.017Z,100335.84
2022-10-23T03:28:59.407Z,100335.72
2022-10-23T03:34:02.238Z,100329.28
2022-10-23T03:39:05.727Z,100327.88
2022-10-23T03:44:07.222Z,100329.00
2022-10-23T03:49:08.695Z,100339.72
2022-10-23T03:54:10.587Z,100336.81
2022-10-23T03:59:12.027Z,100330.94
2022-10-23T04:04:13.996Z,100326.63
2022-10-23T04:09:15.484Z,100332.47
2022-10-23T04:14:17.032Z,100328.72
2022-10-23T04:19:18.456Z,100315.34
2022-10-23T04:24:19.937Z,100311.75
2022-10-23T04:29:21.697Z,100314.94
2022-10-23T04:34:23.222Z,100312.28
2022-10-23T04:39:24.640Z,100323.03
2022-10-23T04:44:26.244Z,100313.56
2022-10-23T04:49:27.700Z,100326.63
2022-10-23T04:54:29.095Z,100309.78
2022-10-23T04:59:30.639Z,100316.03
2022-10-23T05:04:32.233Z,100303.66
2022-10-23T05:09:33.900Z,100299.91
2022-10-23T05:14:35.375Z,100297.50
2022-10-23T05:19:44.601Z,100279.84
2022-10-23T05:24:49.665Z,100269.66
2022-10-23T05:29:52.096Z,100271.72
2022-10-23T05:34:54.380Z,100281.19
2022-10-23T05:39:55.882Z,100270.19
2022-10-23T05:44:57.365Z,100261.31
2022-10-23T05:49:58.766Z,100263.94
2022-10-23T05:55:00.371Z,100266.03
2022-10-23T06:00:01.885Z,100256.13
2022-10-23T06:05:03.813Z,100256.94
2022-10-23T06:10:06.210Z,100246.78
2022-10-23T06:15:08.132Z,100232.88
2022-10-23T06:20:09.944Z,100241.09
2022-10-23T06:25:11.347Z,100237.88
2022-10-23T06:30:13.319Z,100239.00
2022-10-23T06:35:14.904Z,100243.75
2022-10-23T06:40:16.456Z,100241.09
2022-10-23T06:45:17.947Z,100246.41
2022-10-23T06:50:19.385Z,100244.06
2022-10-23T06:55:20.831Z,100237.22
2022-10-23T07:00:22.300Z,100232.81
2022-10-23T07:05:23.773Z,100236.97
2022-10-23T07:10:25.376Z,100238.63
2022-10-23T07:15:27.469Z,100237.78
2022-10-23T07:20:28.909Z,100235.72
2022-10-23T07:25:30.506Z,100233.50
2022-10-23T07:30:32.353Z,100233.19
2022-10-23T07:35:37.046Z,100220.06
2022-10-23T07:40:40.762Z,100227.47
2022-10-23T07:45:42.237Z,100231.44
2022-10-23T07:50:43.865Z,100212.16
2022-10-23T07:55:57.429Z,100205.44
2022-10-23T08:01:01.223Z,100218.38
2022-10-23T08:06:02.801Z,100211.59
2022-10-23T08:11:04.711Z,100202.31
2022-10-23T08:16:06.682Z,100210.09
2022-10-23T08:21:10.304Z,100197.59
2022-10-23T08:26:12.116Z,100198.41
2022-10-23T08:31:15.798Z,100214.41
2022-10-23T08:36:25.659Z,100199.16
2022-10-23T08:41:34.227Z,100193.66
2022-10-23T08:46:47.000Z,100180.63
2022-10-23T08:51:53.993Z,100188.53
2022-10-23T08:57:03.964Z,100186.56
2022-10-23T09:02:16.642Z,100191.31
2022-10-23T09:07:23.872Z,100184.22
2022-10-23T09:12:27.575Z,100183.44
2022-10-23T09:17:37.975Z,100179.72
2022-10-23T09:22:40.614Z,100196.06
2022-10-23T09:27:53.268Z,100193.91
2022-10-23T09:32:58.931Z,100179.34
2022-10-23T09:38:00.421Z,100158.06
2022-10-23T09:43:13.624Z,100146.09
2022-10-23T09:48:17.431Z,100158.88
2022-10-23T09:53:27.081Z,100148.91
2022-10-23T09:58:35.619Z,100151.25
2022-10-23T10:03:37.361Z,100146.44
2022-10-23T10:08:50.533Z,100136.78
2022-10-23T10:14:22.752Z,100122.84
2022-10-23T10:19:40.292Z,100119.84
2022-10-23T10:25:04.818Z,100112.69
2022-10-23T10:30:23.110Z,100110.84
2022-10-23T10:35:41.083Z,100122.66
2022-10-23T10:41:05.117Z,100120.50
2022-10-23T10:46:17.464Z,100106.22
2022-10-23T10:51:29.337Z,100097.72
2022-10-23T10:56:34.745Z,100087.25
2022-10-23T11:02:00.292Z,100083.09
2022-10-23T11:07:07.938Z,100074.78
2022-10-23T11:12:23.053Z,100056.63
2022-10-23T11:17:29.441Z,100048.75
2022-10-23T11:23:00.255Z,100042.78
2022-10-23T11:28:31.738Z,100040.31
2022-10-23T11:34:12.850Z,100058.94
2022-10-23T11:39:25.914Z,100031.66
2022-10-23T11:44:42.677Z,100011.34
2022-10-23T11:49:44.117Z,100008.50
2022-10-23T11:54:45.528Z,99991.81
2022-10-23T11:59:53.554Z,99995.97
2022-10-23T12:04:55.712Z,99991.16
2022-10-23T12:10:07.052Z,99968.63
2022-10-23T12:15:19.231Z,99970.09
2022-10-23T12:20:35.875Z,99958.97
2022-10-23T12:25:56.099Z,99942.25
2022-10-23T12:31:29.203Z,99927.72
2022-10-23T12:36:43.229Z,99920.44
2022-10-23T12:41:44.764Z,99911.91
2022-10-23T12:46:51.719Z,99903.56
2022-10-23T12:52:02.016Z,99878.34
2022-10-23T12:57:20.591Z,99878.06
2022-10-23T13:02:32.315Z,99864.31
2022-10-23T13:07:37.152Z,99854.50
2022-10-23T13:12:40.168Z,99849.63
2022-10-23T13:17:46.142Z,99843.66
2022-10-23T13:22:50.849Z,99850.84
2022-10-23T13:28:13.142Z,99839.78
2022-10-23T13:33:20.769Z,99830.16
2022-10-23T13:38:46.389Z,99822.19
2022-10-23T13:43:48.075Z,99835.84
2022-10-23T13:48:49.472Z,99832.19
2022-10-23T13:53:51.454Z,99836.22
2022-10-23T13:58:53.436Z,99836.88
2022-10-23T14:03:57.118Z,99835.00
2022-10-23T14:08:58.752Z,99818.47
2022-10-23T14:14:00.389Z,99821.94
2022-10-23T14:19:01.869Z,99827.75
2022-10-23T14:24:03.394Z,99824.59
2022-10-23T14:29:08.953Z,99817.81
2022-10-23T14:34:12.896Z,99811.13
2022-10-23T14:39:14.437Z,99795.81
2022-10-23T14:44:16.081Z,99786.28
2022-10-23T14:49:17.612Z,99781.09
2022-10-23T14:54:19.094Z,99792.16
2022-10-23T14:59:20.559Z,99801.34
2022-10-23T15:04:22.149Z,99790.94
2022-10-23T15:09:23.607Z,99803.19
2022-10-23T15:14:25.150Z,99792.84
2022-10-23T15:19:27.441Z,99777.88
2022-10-23T15:24:28.909Z,99768.19
2022-10-23T15:29:30.465Z,99744.25
2022-10-23T15:34:32.066Z,99725.69
2022-10-23T15:39:33.636Z,99736.53
2022-10-23T15:44:35.101Z,99728.00
2022-10-23T15:49:36.743Z,99719.44
2022-10-23T15:54:38.222Z,99697.19
2022-10-23T15:59:39.693Z,99704.75
2022-10-23T16:04:41.149Z,99699.13
2022-10-23T16:09:42.675Z,99701.53
2022-10-23T16:14:44.893Z,99696.94
2022-10-23T16:19:46.329Z,99696.03
2022-10-23T16:24:47.966Z,99689.47
2022-10-23T16:29:49.513Z,99691.72
2022-10-23T16:34:50.984Z,99693.53
2022-10-23T16:39:52.430Z,99698.22
2022-10-23T16:44:54.345Z,99702.16
2022-10-23T16:49:55.805Z,99703.44
2022-10-23T16:54:57.241Z,99729.13
2022-10-23T16:59:58.730Z,99733.38
2022-10-23T17:05:00.317Z,99751.25
2022-10-23T17:10:01.969Z,99766.41
2022-10-23T17:15:03.758Z,99774.69
2022-10-23T17:20:05.724Z,99780.13
2022-10-23T17:25:08.107Z,99823.25
2022-10-23T17:30:12.620Z,99834.97
2022-10-23T17:35:14.528Z,99829.09
2022-10-23T17:40:16.181Z,99842.28
2022-10-23T17:45:17.593Z,99824.53
2022-10-23T17:50:19.052Z,99821.22
2022-10-23T17:55:20.447Z,99825.03
2022-10-23T18:00:21.925Z,99823.06
2022-10-23T18:05:23.401Z,99788.28
2022-10-23T18:10:24.874Z,99799.28
2022-10-23T18:15:26.328Z,99771.00
2022-10-23T18:20:27.781Z,99743.50
2022-10-23T18:25:29.389Z,99747.00
2022-10-23T18:30:30.839Z,99739.59
2022-10-23T18:35:36.093Z,99749.91
2022-10-23T18:40:38.857Z,99752.91
2022-10-23T18:45:42.406Z,99753.72
2022-10-23T18:50:43.908Z,99759.56
2022-10-23T18:55:46.240Z,99755.78
2022-10-23T19:00:47.706Z,99763.44
2022-10-23T19:05:49.136Z,99768.97
2022-10-23T19:10:52.521Z,99784.78
2022-10-23T19:15:54.089Z,99773.94
2022-10-23T19:20:55.520Z,99785.22
2022-10-23T19:25:57.065Z,99805.25
2022-10-23T19:31:00.141Z,99796.25
2022-10-23T19:36:05.478Z,99800.25
2022-10-23T19:41:07.547Z,99805.63
2022-10-23T19:46:11.954Z,99813.13
2022-10-23T19:51:13.849Z,99818.44
2022-10-23T19:56:15.292Z,99827.06
2022-10-23T20:01:19.129Z,99836.06
2022-10-23T20:06:23.286Z,99845.22
2022-10-23T20:11:30.557Z,99844.38
2022-10-23T20:16:35.040Z,99834.28
2022-10-23T20:21:37.817Z,99832.59
2022-10-23T20:26:44.227Z,99826.59
2022-10-23T20:31:45.650Z,99817.28
2022-10-23T20:36:49.384Z,99824.63
2022-10-23T20:41:51.503Z,99831.78
2022-10-23T20:46:52.920Z,99838.31
2022-10-23T20:51:56.977Z,99856.38
2022-10-23T20:56:58.604Z,99862.56
2022-10-23T21:02:00.350Z,99871.88
2022-10-23T21:07:09.981Z,99872.22
2022-10-23T21:12:12.566Z,99860.56
2022-10-23T21:17:14.056Z,99866.06
2022-10-23T21:22:15.528Z,99864.72
2022-10-23T21:27:16.984Z,99860.25
2022-10-23T21:32:18.464Z,99870.84
2022-10-23T21:37:19.938Z,99876.38
2022-10-23T21:42:21.417Z,99876.38
2022-10-23T21:47:22.941Z,99883.31
2022-10-23T21:52:24.418Z,99867.38
2022-10-23T21:57:29.352Z,99866.56
2022-10-23T22:02:30.929Z,99866.03
2022-10-23T22:07:32.617Z,99870.84
2022-10-23T22:12:34.045Z,99881.31
2022-10-23T22:17:35.584Z,99880.47
2022-10-23T22:22:37.425Z,99895.63
2022-10-23T22:27:38.880Z,99884.16
2022-10-23T22:32:40.368Z,99886.47
2022-10-23T22:37:41.823Z,99883.47
2022-10-23T22:42:43.472Z,99877.16
2022-10-23T22:47:45.318Z,99881.16
2022-10-23T22:52:47.057Z,99873.19
2022-10-23T22:57:48.576Z,99868.72
2022-10-23T23:02:50.128Z,99861.56
2022-10-23T23:07:51.640Z,99862.53
2022-10-23T23:12:53.164Z,99867.88
2022-10-23T23:17:54.620Z,99877.66
2022-10-23T23:22:56.029Z,99875.69
2022-10-23T23:27:57.657Z,99872.00
2022-10-23T23:32:59.092Z,99876.50
2022-10-23T23:38:00.577Z,99879.66
2022-10-23T23:43:02.223Z,99877.63
2022-10-23T23:48:03.902Z,99876.50
2022-10-23T23:53:05.456Z,99879.81
2022-10-23T23:58:06.917Z,99873.84
